sensor_id;sensor_type;location;lat;lon;timestamp;pressure;altitude;pressure_sealevel;temperature;humidity
64064;BME280;50314;50.618;10.642;2023-01-29T00:01:30;97733.13;;;17.03;20.80
64064;BME280;50314;50.618;10.642;2023-01-29T00:03:56;97742.09;;;17.02;20.96
64064;BME280;50314;50.618;10.642;2023-01-29T00:06:21;97741.50;;;16.99;20.90
64064;BME280;50314;50.618;10.642;2023-01-29T00:08:50;97742.59;;;16.96;20.88
64064;BME280;50314;50.618;10.642;2023-01-29T00:11:16;97734.72;;;16.95;20.74
64064;BME280;50314;50.618;10.642;2023-01-29T00:13:42;97733.19;;;16.92;21.05
64064;BME280;50314;50.618;10.642;2023-01-29T00:16:08;97727.13;;;16.90;21.05
64064;BME280;50314;50.618;10.642;2023-01-29T00:18:40;97724.41;;;16.80;20.97
64064;BME280;50314;50.618;10.642;2023-01-29T00:21:10;97718.59;;;16.75;20.98
64064;BME280;50314;50.618;10.642;2023-01-29T00:23:36;97717.72;;;16.75;20.82
64064;BME280;50314;50.618;10.642;2023-01-29T00:26:01;97717.28;;;16.70;21.11
64064;BME280;50314;50.618;10.642;2023-01-29T00:28:27;97716.81;;;16.64;21.03
64064;BME280;50314;50.618;10.642;2023-01-29T00:30:52;97717.78;;;16.63;21.15
64064;BME280;50314;50.618;10.642;2023-01-29T00:33:17;97715.00;;;16.65;21.08
64064;BME280;50314;50.618;10.642;2023-01-29T00:35:43;97700.97;;;16.63;21.07
64064;BME280;50314;50.618;10.642;2023-01-29T00:38:08;97701.97;;;16.62;21.10
64064;BME280;50314;50.618;10.642;2023-01-29T00:40:37;97708.22;;;16.61;21.09
64064;BME280;50314;50.618;10.642;2023-01-29T00:43:23;97712.25;;;16.55;21.09
64064;BME280;50314;50.618;10.642;2023-01-29T00:46:07;97713.59;;;16.50;21.12
64064;BME280;50314;50.618;10.642;2023-01-29T00:48:33;97705.88;;;16.47;21.14
64064;BME280;50314;50.618;10.642;2023-01-29T00:50:59;97706.97;;;16.44;21.13
64064;BME280;50314;50.618;10.642;2023-01-29T00:53:25;97696.72;;;16.39;21.24
64064;BME280;50314;50.618;10.642;2023-01-29T00:55:50;97702.28;;;16.36;21.16
64064;BME280;50314;50.618;10.642;2023-01-29T00:58:15;97702.53;;;16.33;21.18
64064;BME280;50314;50.618;10.642;2023-01-29T01:00:47;97693.84;;;16.31;21.16
64064;BME280;50314;50.618;10.642;2023-01-29T01:03:13;97695.78;;;16.29;21.25
64064;BME280;50314;50.618;10.642;2023-01-29T01:05:39;97695.88;;;16.28;21.09
64064;BME280;50314;50.618;10.642;2023-01-29T01:08:04;97701.34;;;16.26;21.25
64064;BME280;50314;50.618;10.642;2023-01-29T01:11:04;97704.16;;;16.25;21.13
64064;BME280;50314;50.618;10.642;2023-01-29T01:13:31;97701.09;;;16.29;21.20
64064;BME280;50314;50.618;10.642;2023-01-29T01:15:57;97695.28;;;16.24;21.14
64064;BME280;50314;50.618;10.642;2023-01-29T01:18:23;97696.53;;;16.20;21.26
64064;BME280;50314;50.618;10.642;2023-01-29T01:20:48;97692.28;;;16.17;21.22
64064;BME280;50314;50.618;10.642;2023-01-29T01:23:18;97690.03;;;16.13;21.19
64064;BME280;50314;50.618;10.642;2023-01-29T01:25:44;97686.75;;;16.09;21.40
64064;BME280;50314;50.618;10.642;2023-01-29T01:28:10;97684.22;;;16.08;21.30
64064;BME280;50314;50.618;10.642;2023-01-29T01:30:35;97685.16;;;16.07;21.46
64064;BME280;50314;50.618;10.642;2023-01-29T01:33:01;97684.56;;;16.03;21.28
64064;BME280;50314;50.618;10.642;2023-01-29T01:35:26;97673.94;;;16.03;21.35
64064;BME280;50314;50.618;10.642;2023-01-29T01:37:52;97679.84;;;16.07;21.41
64064;BME280;50314;50.618;10.642;2023-01-29T01:40:20;97677.94;;;16.09;21.28
64064;BME280;50314;50.618;10.642;2023-01-29T01:42:59;97667.53;;;16.06;21.19
64064;BME280;50314;50.618;10.642;2023-01-29T01:45:32;97660.41;;;16.06;21.25
64064;BME280;50314;50.618;10.642;2023-01-29T01:53:19;97660.44;;;15.95;21.23
64064;BME280;50314;50.618;10.642;2023-01-29T01:55:57;97647.50;;;15.90;21.32
64064;BME280;50314;50.618;10.642;2023-01-29T01:59:00;97639.09;;;15.85;21.20
64064;BME280;50314;50.618;10.642;2023-01-29T02:01:26;97639.34;;;15.82;21.22
64064;BME280;50314;50.618;10.642;2023-01-29T02:03:57;97642.97;;;15.81;21.46
64064;BME280;50314;50.618;10.642;2023-01-29T02:06:44;97644.88;;;15.79;21.22
64064;BME280;50314;50.618;10.642;2023-01-29T02:09:33;97639.13;;;15.74;21.40
64064;BME280;50314;50.618;10.642;2023-01-29T02:12:02;97640.66;;;15.77;21.22
64064;BME280;50314;50.618;10.642;2023-01-29T02:14:28;97650.69;;;15.73;21.52
64064;BME280;50314;50.618;10.642;2023-01-29T02:16:56;97648.41;;;15.68;21.29
64064;BME280;50314;50.618;10.642;2023-01-29T02:22:11;97648.78;;;15.64;21.38
64064;BME280;50314;50.618;10.642;2023-01-29T02:30:40;97657.94;;;15.60;21.61
64064;BME280;50314;50.618;10.642;2023-01-29T02:47:29;97698.59;;;15.60;21.52
64064;BME280;50314;50.618;10.642;2023-01-29T02:53:00;97692.47;;;15.60;21.44
64064;BME280;50314;50.618;10.642;2023-01-29T02:58:10;97678.25;;;15.61;21.36
64064;BME280;50314;50.618;10.642;2023-01-29T03:00:40;97679.06;;;15.61;21.58
64064;BME280;50314;50.618;10.642;2023-01-29T03:03:10;97686.91;;;15.63;21.60
64064;BME280;50314;50.618;10.642;2023-01-29T03:11:11;97690.53;;;15.62;21.49
64064;BME280;50314;50.618;10.642;2023-01-29T03:13:41;97688.97;;;15.59;21.22
64064;BME280;50314;50.618;10.642;2023-01-29T03:19:18;97685.94;;;15.53;21.29
64064;BME280;50314;50.618;10.642;2023-01-29T03:21:51;97692.09;;;15.53;21.39
64064;BME280;50314;50.618;10.642;2023-01-29T03:27:55;97700.66;;;15.45;21.54
64064;BME280;50314;50.618;10.642;2023-01-29T03:30:53;97701.88;;;15.41;21.64
64064;BME280;50314;50.618;10.642;2023-01-29T03:33:47;97704.53;;;15.41;21.62
64064;BME280;50314;50.618;10.642;2023-01-29T03:36:22;97700.91;;;15.42;21.37
64064;BME280;50314;50.618;10.642;2023-01-29T03:38:51;97690.03;;;15.45;21.71
64064;BME280;50314;50.618;10.642;2023-01-29T03:41:37;97695.72;;;15.41;21.49
64064;BME280;50314;50.618;10.642;2023-01-29T03:44:14;97684.28;;;15.40;21.26
64064;BME280;50314;50.618;10.642;2023-01-29T03:46:50;97679.88;;;15.39;21.65
64064;BME280;50314;50.618;10.642;2023-01-29T03:52:18;97678.19;;;15.38;21.42
64064;BME280;50314;50.618;10.642;2023-01-29T03:54:59;97685.41;;;15.36;21.64
64064;BME280;50314;50.618;10.642;2023-01-29T03:57:55;97688.81;;;15.38;21.59
64064;BME280;50314;50.618;10.642;2023-01-29T04:00:26;97686.28;;;15.37;21.44
64064;BME280;50314;50.618;10.642;2023-01-29T04:03:30;97679.75;;;15.30;21.71
64064;BME280;50314;50.618;10.642;2023-01-29T04:06:19;97678.91;;;15.29;21.56
64064;BME280;50314;50.618;10.642;2023-01-29T04:08:56;97683.97;;;15.32;21.55
64064;BME280;50314;50.618;10.642;2023-01-29T04:11:24;97682.06;;;15.34;21.65
64064;BME280;50314;50.618;10.642;2023-01-29T04:13:51;97681.22;;;15.34;21.70
64064;BME280;50314;50.618;10.642;2023-01-29T04:16:24;97689.28;;;15.32;21.75
64064;BME280;50314;50.618;10.642;2023-01-29T04:18:52;97683.75;;;15.35;21.43
64064;BME280;50314;50.618;10.642;2023-01-29T04:21:18;97673.81;;;15.26;21.68
64064;BME280;50314;50.618;10.642;2023-01-29T04:23:43;97669.03;;;15.31;21.77
64064;BME280;50314;50.618;10.642;2023-01-29T04:29:02;97660.94;;;15.21;21.47
64064;BME280;50314;50.618;10.642;2023-01-29T04:31:34;97662.50;;;15.24;21.71
64064;BME280;50314;50.618;10.642;2023-01-29T04:50:45;97664.88;;;15.16;21.57
64064;BME280;50314;50.618;10.642;2023-01-29T04:56:25;97658.13;;;15.12;21.62
64064;BME280;50314;50.618;10.642;2023-01-29T04:58:57;97663.06;;;15.16;21.63
64064;BME280;50314;50.618;10.642;2023-01-29T05:01:27;97664.78;;;15.17;21.60
64064;BME280;50314;50.618;10.642;2023-01-29T05:03:54;97656.69;;;15.19;21.81
64064;BME280;50314;50.618;10.642;2023-01-29T05:06:21;97657.53;;;15.19;21.80
64064;BME280;50314;50.618;10.642;2023-01-29T05:08:50;97651.38;;;15.19;21.71
64064;BME280;50314;50.618;10.642;2023-01-29T05:11:17;97647.78;;;15.20;21.51
64064;BME280;50314;50.618;10.642;2023-01-29T05:13:43;97653.09;;;15.20;21.59
64064;BME280;50314;50.618;10.642;2023-01-29T05:16:15;97655.13;;;15.16;21.84
64064;BME280;50314;50.618;10.642;2023-01-29T05:18:43;97657.91;;;15.15;21.89
64064;BME280;50314;50.618;10.642;2023-01-29T05:21:09;97660.78;;;15.12;21.54
64064;BME280;50314;50.618;10.642;2023-01-29T05:23:35;97655.47;;;15.12;21.71
64064;BME280;50314;50.618;10.642;2023-01-29T05:26:00;97651.25;;;15.09;21.92
64064;BME280;50314;50.618;10.642;2023-01-29T05:28:26;97649.34;;;15.11;21.83
64064;BME280;50314;50.618;10.642;2023-01-29T05:30:53;97644.88;;;15.12;21.98
64064;BME280;50314;50.618;10.642;2023-01-29T05:33:28;97646.06;;;15.08;21.96
64064;BME280;50314;50.618;10.642;2023-01-29T05:35:54;97648.50;;;15.11;21.66
64064;BME280;50314;50.618;10.642;2023-01-29T05:38:21;97648.59;;;15.09;21.86
64064;BME280;50314;50.618;10.642;2023-01-29T05:40:47;97639.81;;;15.09;21.86
64064;BME280;50314;50.618;10.642;2023-01-29T05:43:18;97653.19;;;15.07;21.48
64064;BME280;50314;50.618;10.642;2023-01-29T05:45:55;97643.91;;;15.01;21.92
64064;BME280;50314;50.618;10.642;2023-01-29T05:48:21;97645.47;;;15.04;21.94
64064;BME280;50314;50.618;10.642;2023-01-29T05:50:47;97642.81;;;15.04;22.02
64064;BME280;50314;50.618;10.642;2023-01-29T05:53:12;97657.91;;;15.03;21.55
64064;BME280;50314;50.618;10.642;2023-01-29T05:55:38;97648.22;;;15.02;21.64
64064;BME280;50314;50.618;10.642;2023-01-29T05:58:03;97647.53;;;15.00;21.93
64064;BME280;50314;50.618;10.642;2023-01-29T06:00:29;97638.81;;;14.98;21.98
64064;BME280;50314;50.618;10.642;2023-01-29T06:02:54;97639.66;;;14.99;21.96
64064;BME280;50314;50.618;10.642;2023-01-29T06:05:21;97641.47;;;14.98;21.89
64064;BME280;50314;50.618;10.642;2023-01-29T06:07:46;97637.84;;;14.99;21.95
64064;BME280;50314;50.618;10.642;2023-01-29T06:10:16;97637.84;;;14.99;21.63
64064;BME280;50314;50.618;10.642;2023-01-29T06:12:42;97626.41;;;14.99;21.58
64064;BME280;50314;50.618;10.642;2023-01-29T06:15:08;97627.59;;;14.95;21.92
64064;BME280;50314;50.618;10.642;2023-01-29T06:17:34;97618.94;;;14.93;22.09
64064;BME280;50314;50.618;10.642;2023-01-29T06:19:59;97621.47;;;14.94;21.99
64064;BME280;50314;50.618;10.642;2023-01-29T06:22:25;97620.47;;;14.95;21.76
64064;BME280;50314;50.618;10.642;2023-01-29T06:24:50;97633.75;;;14.95;22.05
64064;BME280;50314;50.618;10.642;2023-01-29T06:27:16;97633.75;;;14.95;21.74
64064;BME280;50314;50.618;10.642;2023-01-29T06:29:41;97630.25;;;14.95;21.97
64064;BME280;50314;50.618;10.642;2023-01-29T06:32:06;97632.06;;;14.94;22.00
64064;BME280;50314;50.618;10.642;2023-01-29T06:34:32;97628.69;;;14.92;21.79
64064;BME280;50314;50.618;10.642;2023-01-29T06:36:57;97626.91;;;14.93;21.75
64064;BME280;50314;50.618;10.642;2023-01-29T06:39:23;97626.16;;;14.91;21.86
64064;BME280;50314;50.618;10.642;2023-01-29T06:41:48;97631.56;;;14.89;21.83
64064;BME280;50314;50.618;10.642;2023-01-29T06:44:14;97625.31;;;14.90;21.67
64064;BME280;50314;50.618;10.642;2023-01-29T06:46:39;97631.47;;;14.91;22.04
64064;BME280;50314;50.618;10.642;2023-01-29T06:49:05;97635.94;;;14.90;22.10
64064;BME280;50314;50.618;10.642;2023-01-29T06:51:30;97643.75;;;14.92;21.80
64064;BME280;50314;50.618;10.642;2023-01-29T06:53:56;97647.97;;;14.94;22.00
64064;BME280;50314;50.618;10.642;2023-01-29T06:56:22;97649.81;;;14.94;22.02
64064;BME280;50314;50.618;10.642;2023-01-29T06:58:47;97651.84;;;14.90;21.64
64064;BME280;50314;50.618;10.642;2023-01-29T07:01:13;97662.44;;;14.90;22.15
64064;BME280;50314;50.618;10.642;2023-01-29T07:03:39;97665.09;;;14.90;21.88
64064;BME280;50314;50.618;10.642;2023-01-29T07:06:06;97664.97;;;14.92;21.94
64064;BME280;50314;50.618;10.642;2023-01-29T07:08:38;97656.31;;;14.90;21.74
64064;BME280;50314;50.618;10.642;2023-01-29T07:11:05;97664.25;;;14.90;22.05
64064;BME280;50314;50.618;10.642;2023-01-29T07:13:30;97660.75;;;14.89;22.03
64064;BME280;50314;50.618;10.642;2023-01-29T07:16:03;97668.22;;;14.84;21.89
64064;BME280;50314;50.618;10.642;2023-01-29T07:18:30;97663.75;;;14.85;21.99
64064;BME280;50314;50.618;10.642;2023-01-29T07:20:55;97657.59;;;14.84;21.92
64064;BME280;50314;50.618;10.642;2023-01-29T07:23:21;97660.25;;;14.84;21.83
64064;BME280;50314;50.618;10.642;2023-01-29T07:25:47;97654.81;;;14.86;22.08
64064;BME280;50314;50.618;10.642;2023-01-29T07:28:15;97666.31;;;14.86;21.84
64064;BME280;50314;50.618;10.642;2023-01-29T07:30:40;97664.59;;;14.85;22.24
64064;BME280;50314;50.618;10.642;2023-01-29T07:33:07;97670.75;;;14.86;21.96
64064;BME280;50314;50.618;10.642;2023-01-29T07:35:37;97680.75;;;14.82;21.89
64064;BME280;50314;50.618;10.642;2023-01-29T07:38:03;97698.38;;;14.83;21.78
64064;BME280;50314;50.618;10.642;2023-01-29T07:40:28;97711.63;;;14.83;21.91
64064;BME280;50314;50.618;10.642;2023-01-29T07:43:02;97703.06;;;14.79;22.03
64064;BME280;50314;50.618;10.642;2023-01-29T07:45:28;97702.94;;;14.81;22.08
64064;BME280;50314;50.618;10.642;2023-01-29T07:47:54;97704.59;;;14.82;22.12
64064;BME280;50314;50.618;10.642;2023-01-29T07:50:21;97712.56;;;14.82;22.16
64064;BME280;50314;50.618;10.642;2023-01-29T07:52:47;97711.63;;;14.83;21.80
64064;BME280;50314;50.618;10.642;2023-01-29T07:55:12;97701.94;;;14.82;21.94
64064;BME280;50314;50.618;10.642;2023-01-29T07:57:38;97715.22;;;14.82;21.97
64064;BME280;50314;50.618;10.642;2023-01-29T08:00:03;97718.72;;;14.83;22.06
64064;BME280;50314;50.618;10.642;2023-01-29T08:02:29;97720.53;;;14.82;22.20
64064;BME280;50314;50.618;10.642;2023-01-29T08:04:54;97709.91;;;14.82;21.86
64064;BME280;50314;50.618;10.642;2023-01-29T08:07:20;97706.41;;;14.82;21.87
64064;BME280;50314;50.618;10.642;2023-01-29T08:09:46;97701.94;;;14.82;21.99
64064;BME280;50314;50.618;10.642;2023-01-29T08:12:11;97687.00;;;14.81;22.13
64064;BME280;50314;50.618;10.642;2023-01-29T08:14:36;97694.97;;;14.81;22.08
64064;BME280;50314;50.618;10.642;2023-01-29T08:17:02;97689.66;;;14.81;21.98
64064;BME280;50314;50.618;10.642;2023-01-29T08:19:27;97701.94;;;14.82;21.88
64064;BME280;50314;50.618;10.642;2023-01-29T08:21:53;97700.16;;;14.83;22.26
64064;BME280;50314;50.618;10.642;2023-01-29T08:24:18;97689.53;;;14.83;21.85
64064;BME280;50314;50.618;10.642;2023-01-29T08:26:44;97690.41;;;14.83;22.21
64064;BME280;50314;50.618;10.642;2023-01-29T08:29:10;97687.63;;;14.85;21.71
64064;BME280;50314;50.618;10.642;2023-01-29T08:31:36;97685.81;;;14.85;21.85
64064;BME280;50314;50.618;10.642;2023-01-29T08:34:01;97681.34;;;14.86;22.29
64064;BME280;50314;50.618;10.642;2023-01-29T08:36:27;97670.75;;;14.86;21.82
64064;BME280;50314;50.618;10.642;2023-01-29T08:38:52;97671.59;;;14.86;22.18
64064;BME280;50314;50.618;10.642;2023-01-29T08:41:17;97670.63;;;14.87;21.82
64064;BME280;50314;50.618;10.642;2023-01-29T08:43:43;97687.53;;;14.86;22.19
64064;BME280;50314;50.618;10.642;2023-01-29T08:46:09;97691.03;;;14.87;22.10
64064;BME280;50314;50.618;10.642;2023-01-29T08:48:34;97691.84;;;14.87;22.26
64064;BME280;50314;50.618;10.642;2023-01-29T08:51:00;97676.78;;;14.88;22.32
64064;BME280;50314;50.618;10.642;2023-01-29T08:53:27;97675.72;;;14.90;22.13
64064;BME280;50314;50.618;10.642;2023-01-29T08:55:53;97665.09;;;14.90;22.31
64064;BME280;50314;50.618;10.642;2023-01-29T08:58:18;97672.94;;;14.92;22.12
64064;BME280;50314;50.618;10.642;2023-01-29T09:00:45;97688.00;;;14.91;22.19
64064;BME280;50314;50.618;10.642;2023-01-29T09:03:10;97697.66;;;14.92;22.26
64064;BME280;50314;50.618;10.642;2023-01-29T09:05:37;97709.13;;;14.93;22.26
64064;BME280;50314;50.618;10.642;2023-01-29T09:08:04;97720.56;;;14.93;22.21
64064;BME280;50314;50.618;10.642;2023-01-29T09:10:29;97715.38;;;14.92;22.34
64064;BME280;50314;50.618;10.642;2023-01-29T09:12:55;97724.16;;;14.92;22.30
64064;BME280;50314;50.618;10.642;2023-01-29T09:15:20;97735.66;;;14.93;22.45
64064;BME280;50314;50.618;10.642;2023-01-29T09:17:46;97754.22;;;14.93;22.08
64064;BME280;50314;50.618;10.642;2023-01-29T09:20:13;97759.41;;;14.94;22.23
64064;BME280;50314;50.618;10.642;2023-01-29T09:22:39;97756.00;;;14.92;22.47
64064;BME280;50314;50.618;10.642;2023-01-29T09:25:05;97750.47;;;14.95;22.16
64064;BME280;50314;50.618;10.642;2023-01-29T09:27:31;97736.75;;;15.01;22.31
64064;BME280;50314;50.618;10.642;2023-01-29T09:29:56;97730.50;;;15.14;22.52
64064;BME280;50314;50.618;10.642;2023-01-29T09:32:22;97709.06;;;15.28;22.61
64064;BME280;50314;50.618;10.642;2023-01-29T09:34:47;97709.59;;;15.44;22.78
64064;BME280;50314;50.618;10.642;2023-01-29T09:37:12;97692.34;;;15.61;22.92
64064;BME280;50314;50.618;10.642;2023-01-29T09:39:38;97680.25;;;15.80;22.81
64064;BME280;50314;50.618;10.642;2023-01-29T09:42:11;97687.25;;;15.92;23.02
64064;BME280;50314;50.618;10.642;2023-01-29T09:47:28;97690.47;;;16.29;23.13
64064;BME280;50314;50.618;10.642;2023-01-29T09:50:06;97692.56;;;16.47;23.31
64064;BME280;50314;50.618;10.642;2023-01-29T09:52:46;97700.59;;;16.67;22.88
64064;BME280;50314;50.618;10.642;2023-01-29T09:55:29;97701.28;;;16.81;22.77
64064;BME280;50314;50.618;10.642;2023-01-29T09:58:04;97700.00;;;16.96;22.57
64064;BME280;50314;50.618;10.642;2023-01-29T10:03:38;97678.88;;;17.25;22.37
64064;BME280;50314;50.618;10.642;2023-01-29T10:06:19;97674.91;;;17.41;22.08
64064;BME280;50314;50.618;10.642;2023-01-29T10:14:54;97649.00;;;17.73;22.36
64064;BME280;50314;50.618;10.642;2023-01-29T10:25:06;97629.75;;;18.10;22.40
64064;BME280;50314;50.618;10.642;2023-01-29T10:27:37;97628.06;;;18.19;21.65
64064;BME280;50314;50.618;10.642;2023-01-29T10:30:37;97624.03;;;18.24;21.75
64064;BME280;50314;50.618;10.642;2023-01-29T10:33:08;97621.22;;;18.36;21.77
64064;BME280;50314;50.618;10.642;2023-01-29T10:35:41;97625.84;;;18.43;21.65
64064;BME280;50314;50.618;10.642;2023-01-29T10:41:00;97631.72;;;18.66;21.77
64064;BME280;50314;50.618;10.642;2023-01-29T10:43:37;97619.25;;;18.76;21.63
64064;BME280;50314;50.618;10.642;2023-01-29T10:49:03;97605.16;;;18.94;21.31
64064;BME280;50314;50.618;10.642;2023-01-29T10:51:51;97600.34;;;19.07;21.81
64064;BME280;50314;50.618;10.642;2023-01-29T10:54:36;97574.59;;;19.16;21.24
64064;BME280;50314;50.618;10.642;2023-01-29T10:57:48;97566.94;;;19.31;21.37
64064;BME280;50314;50.618;10.642;2023-01-29T11:00:48;97570.97;;;19.44;21.13
64064;BME280;50314;50.618;10.642;2023-01-29T11:03:25;97579.91;;;19.63;21.43
64064;BME280;50314;50.618;10.642;2023-01-29T11:14:07;97574.78;;;20.15;20.76
64064;BME280;50314;50.618;10.642;2023-01-29T11:16:46;97568.66;;;20.23;20.69
64064;BME280;50314;50.618;10.642;2023-01-29T11:19:12;97561.78;;;20.38;21.05
64064;BME280;50314;50.618;10.642;2023-01-29T11:21:58;97558.50;;;20.44;20.87
64064;BME280;50314;50.618;10.642;2023-01-29T11:24:24;97547.38;;;20.57;20.87
64064;BME280;50314;50.618;10.642;2023-01-29T11:26:51;97540.28;;;20.65;20.55
64064;BME280;50314;50.618;10.642;2023-01-29T11:29:40;97533.59;;;20.70;20.50
64064;BME280;50314;50.618;10.642;2023-01-29T11:32:23;97533.34;;;20.81;20.47
64064;BME280;50314;50.618;10.642;2023-01-29T11:37:40;97524.31;;;21.08;20.65
64064;BME280;50314;50.618;10.642;2023-01-29T11:40:37;97519.81;;;21.17;20.65
64064;BME280;50314;50.618;10.642;2023-01-29T11:45:57;97510.91;;;21.50;20.51
64064;BME280;50314;50.618;10.642;2023-01-29T11:48:30;97517.47;;;21.64;20.49
64064;BME280;50314;50.618;10.642;2023-01-29T11:50:58;97516.56;;;21.81;20.52
64064;BME280;50314;50.618;10.642;2023-01-29T11:55:59;97507.00;;;22.12;20.13
64064;BME280;50314;50.618;10.642;2023-01-29T11:58:29;97494.31;;;22.22;19.87
64064;BME280;50314;50.618;10.642;2023-01-29T12:00:57;97491.94;;;22.35;20.08
64064;BME280;50314;50.618;10.642;2023-01-29T12:06:39;97498.63;;;22.56;20.18
64064;BME280;50314;50.618;10.642;2023-01-29T12:09:14;97487.88;;;22.64;20.02
64064;BME280;50314;50.618;10.642;2023-01-29T12:11:41;97488.53;;;22.74;19.84
64064;BME280;50314;50.618;10.642;2023-01-29T12:14:39;97478.28;;;22.78;19.99
64064;BME280;50314;50.618;10.642;2023-01-29T12:17:22;97473.41;;;22.89;19.83
64064;BME280;50314;50.618;10.642;2023-01-29T12:20:05;97458.97;;;22.90;19.38
64064;BME280;50314;50.618;10.642;2023-01-29T12:25:48;97452.38;;;23.01;19.30
64064;BME280;50314;50.618;10.642;2023-01-29T12:33:58;97442.13;;;23.05;19.26
64064;BME280;50314;50.618;10.642;2023-01-29T12:43:58;97429.66;;;23.12;19.38
64064;BME280;50314;50.618;10.642;2023-01-29T12:46:30;97419.75;;;23.12;19.31
64064;BME280;50314;50.618;10.642;2023-01-29T12:49:00;97429.66;;;23.12;19.11
64064;BME280;50314;50.618;10.642;2023-01-29T12:51:33;97426.34;;;23.10;19.07
64064;BME280;50314;50.618;10.642;2023-01-29T12:54:08;97422.97;;;23.08;19.05
64064;BME280;50314;50.618;10.642;2023-01-29T12:56:57;97427.03;;;23.04;19.35
64064;BME280;50314;50.618;10.642;2023-01-29T12:59:32;97420.81;;;23.03;18.96
64064;BME280;50314;50.618;10.642;2023-01-29T13:04:48;97409.94;;;22.96;19.30
64064;BME280;50314;50.618;10.642;2023-01-29T13:07:23;97412.97;;;22.93;19.32
64064;BME280;50314;50.618;10.642;2023-01-29T13:09:55;97406.25;;;22.89;19.33
64064;BME280;50314;50.618;10.642;2023-01-29T13:12:22;97409.28;;;22.86;19.27
64064;BME280;50314;50.618;10.642;2023-01-29T13:15:14;97405.44;;;22.81;19.12
64064;BME280;50314;50.618;10.642;2023-01-29T13:17:45;97393.53;;;22.75;19.25
64064;BME280;50314;50.618;10.642;2023-01-29T13:20:18;97395.25;;;22.68;19.25
64064;BME280;50314;50.618;10.642;2023-01-29T13:22:46;97387.38;;;22.66;18.88
64064;BME280;50314;50.618;10.642;2023-01-29T13:25:17;97383.53;;;22.61;18.69
64064;BME280;50314;50.618;10.642;2023-01-29T13:27:43;97391.94;;;22.58;18.84
64064;BME280;50314;50.618;10.642;2023-01-29T13:30:29;97384.06;;;22.48;19.01
64064;BME280;50314;50.618;10.642;2023-01-29T13:32:58;97380.91;;;22.44;18.76
64064;BME280;50314;50.618;10.642;2023-01-29T13:35:34;97368.16;;;22.38;18.94
64064;BME280;50314;50.618;10.642;2023-01-29T13:38:01;97378.91;;;22.38;18.45
64064;BME280;50314;50.618;10.642;2023-01-29T13:40:29;97368.16;;;22.38;17.49
64064;BME280;50314;50.618;10.642;2023-01-29T13:42:57;97367.81;;;22.41;17.25
64064;BME280;50314;50.618;10.642;2023-01-29T13:45:42;97380.25;;;22.42;17.98
64064;BME280;50314;50.618;10.642;2023-01-29T13:48:17;97389.59;;;22.55;17.38
64064;BME280;50314;50.618;10.642;2023-01-29T13:50:45;97388.72;;;22.62;17.25
64064;BME280;50314;50.618;10.642;2023-01-29T13:53:32;97381.19;;;22.66;17.76
64064;BME280;50314;50.618;10.642;2023-01-29T13:56:33;97372.88;;;22.75;17.38
64064;BME280;50314;50.618;10.642;2023-01-29T13:59:20;97377.56;;;22.90;18.31
64064;BME280;50314;50.618;10.642;2023-01-29T14:06:53;97367.59;;;23.30;18.22
64064;BME280;50314;50.618;10.642;2023-01-29T14:12:06;97364.66;;;23.48;18.44
64064;BME280;50314;50.618;10.642;2023-01-29T14:15:00;97363.56;;;23.57;18.30
64064;BME280;50314;50.618;10.642;2023-01-29T14:17:27;97366.19;;;23.65;17.76
64064;BME280;50314;50.618;10.642;2023-01-29T14:20:16;97364.34;;;23.65;17.78
64064;BME280;50314;50.618;10.642;2023-01-29T14:22:43;97350.44;;;23.77;18.01
64064;BME280;50314;50.618;10.642;2023-01-29T14:25:16;97352.78;;;23.80;17.93
64064;BME280;50314;50.618;10.642;2023-01-29T14:27:46;97344.81;;;23.86;17.21
64064;BME280;50314;50.618;10.642;2023-01-29T14:30:17;97338.44;;;23.87;17.69
64064;BME280;50314;50.618;10.642;2023-01-29T14:32:47;97330.63;;;23.92;17.98
64064;BME280;50314;50.618;10.642;2023-01-29T14:35:22;97329.63;;;23.93;17.93
64064;BME280;50314;50.618;10.642;2023-01-29T14:37:51;97328.91;;;24.00;17.87
64064;BME280;50314;50.618;10.642;2023-01-29T14:43:06;97323.38;;;24.01;17.30
64064;BME280;50314;50.618;10.642;2023-01-29T14:45:37;97334.59;;;24.05;17.51
64064;BME280;50314;50.618;10.642;2023-01-29T14:56:16;97332.16;;;24.10;17.87
64064;BME280;50314;50.618;10.642;2023-01-29T14:58:49;97336.81;;;24.16;17.35
64064;BME280;50314;50.618;10.642;2023-01-29T15:01:22;97333.19;;;24.24;17.31
64064;BME280;50314;50.618;10.642;2023-01-29T15:03:59;97332.28;;;24.31;17.60
64064;BME280;50314;50.618;10.642;2023-01-29T15:06:40;97329.50;;;24.39;17.59
64064;BME280;50314;50.618;10.642;2023-01-29T15:09:11;97329.03;;;24.51;17.51
64064;BME280;50314;50.618;10.642;2023-01-29T15:12:07;97324.97;;;24.55;17.66
64064;BME280;50314;50.618;10.642;2023-01-29T15:14:40;97326.16;;;24.67;17.53
64064;BME280;50314;50.618;10.642;2023-01-29T15:19:41;97321.50;;;24.76;17.56
64064;BME280;50314;50.618;10.642;2023-01-29T15:22:14;97315.38;;;24.82;17.46
64064;BME280;50314;50.618;10.642;2023-01-29T15:24:42;97319.13;;;24.88;17.55
64064;BME280;50314;50.618;10.642;2023-01-29T15:27:16;97328.91;;;24.89;17.67
64064;BME280;50314;50.618;10.642;2023-01-29T15:29:48;97334.56;;;24.94;17.43
64064;BME280;50314;50.618;10.642;2023-01-29T15:32:31;97328.97;;;24.95;17.40
64064;BME280;50314;50.618;10.642;2023-01-29T15:34:57;97323.88;;;25.00;17.49
64064;BME280;50314;50.618;10.642;2023-01-29T15:37:30;97316.97;;;24.98;17.40
64064;BME280;50314;50.618;10.642;2023-01-29T15:39:58;97310.41;;;25.00;17.53
64064;BME280;50314;50.618;10.642;2023-01-29T15:42:26;97313.09;;;25.00;17.22
64064;BME280;50314;50.618;10.642;2023-01-29T15:44:52;97306.84;;;25.00;17.50
64064;BME280;50314;50.618;10.642;2023-01-29T15:47:30;97304.72;;;24.95;17.25